sensor_id;sensor_type;location;lat;lon;timestamp;pressure;altitude;pressure_sealevel;temperature;humidity
30714;BME280;17465;47.934;33.430;2023-04-06T00:00:21;57354.79;;;-140.43;100.00
30714;BME280;17465;47.934;33.430;2023-04-06T00:02:52;57366.44;;;-140.43;100.00
30714;BME280;17465;47.934;33.430;2023-04-06T00:05:23;57330.43;;;-140.43;100.00
30714;BME280;17465;47.934;33.430;2023-04-06T00:07:55;57370.68;;;-140.43;100.00
30714;BME280;17465;47.934;33.430;2023-04-06T00:13:16;57359.03;;;-140.43;100.00
30714;BME280;17465;47.934;33.430;2023-04-06T00:15:46;57351.61;;;-140.43;100.00
30714;BME280;17465;47.934;33.430;2023-04-06T00:18:17;57338.90;;;-140.43;100.00
30714;BME280;17465;47.934;33.430;2023-04-06T00:20:47;57363.26;;;-140.43;100.00
30714;BME280;17465;47.934;33.430;2023-04-06T00:23:18;57364.32;;;-140.43;100.00
30714;BME280;17465;47.934;33.430;2023-04-06T00:25:49;57357.96;;;-140.43;100.00
30714;BME280;17465;47.934;33.430;2023-04-06T00:28:20;57357.96;;;-140.43;100.00
30714;BME280;17465;47.934;33.430;2023-04-06T00:30:55;57341.02;;;-140.43;100.00
30714;BME280;17465;47.934;33.430;2023-04-06T00:33:26;57364.32;;;-140.43;100.00
30714;BME280;17465;47.934;33.430;2023-04-06T00:35:56;57349.49;;;-140.43;100.00
30714;BME280;17465;47.934;33.430;2023-04-06T00:38:27;57363.26;;;-140.43;100.00
30714;BME280;17465;47.934;33.430;2023-04-06T00:40:58;57363.26;;;-140.43;100.00
30714;BME280;17465;47.934;33.430;2023-04-06T00:43:28;57336.79;;;-140.43;100.00
30714;BME280;17465;47.934;33.430;2023-04-06T00:45:59;57353.73;;;-140.43;100.00
30714;BME280;17465;47.934;33.430;2023-04-06T00:48:30;57355.85;;;-140.43;100.00
30714;BME280;17465;47.934;33.430;2023-04-06T00:51:01;57347.38;;;-140.43;100.00
30714;BME280;17465;47.934;33.430;2023-04-06T00:53:32;57373.85;;;-140.43;100.00
30714;BME280;17465;47.934;33.430;2023-04-06T00:56:02;57371.73;;;-140.43;100.00
30714;BME280;17465;47.934;33.430;2023-04-06T00:58:33;57356.91;;;-140.43;100.00
30714;BME280;17465;47.934;33.430;2023-04-06T01:01:05;57356.91;;;-140.43;100.00
30714;BME280;17465;47.934;33.430;2023-04-06T01:03:37;57364.32;;;-140.43;100.00
30714;BME280;17465;47.934;33.430;2023-04-06T01:06:08;57357.96;;;-140.43;100.00
30714;BME280;17465;47.934;33.430;2023-04-06T01:08:38;57353.73;;;-140.43;100.00
30714;BME280;17465;47.934;33.430;2023-04-06T01:11:09;57353.73;;;-140.43;100.00
30714;BME280;17465;47.934;33.430;2023-04-06T01:13:39;57370.68;;;-140.43;100.00
30714;BME280;17465;47.934;33.430;2023-04-06T01:16:10;57343.14;;;-140.43;100.00
30714;BME280;17465;47.934;33.430;2023-04-06T01:18:41;57350.55;;;-140.43;100.00
30714;BME280;17465;47.934;33.430;2023-04-06T01:21:11;57371.73;;;-140.43;100.00
30714;BME280;17465;47.934;33.430;2023-04-06T01:23:45;57342.08;;;-140.43;100.00
30714;BME280;17465;47.934;33.430;2023-04-06T01:26:16;57363.26;;;-140.43;100.00
30714;BME280;17465;47.934;33.430;2023-04-06T01:28:46;57370.68;;;-140.43;100.00
30714;BME280;17465;47.934;33.430;2023-04-06T01:31:17;57365.38;;;-140.43;100.00
30714;BME280;17465;47.934;33.430;2023-04-06T01:33:48;57380.21;;;-140.43;100.00
30714;BME280;17465;47.934;33.430;2023-04-06T01:36:19;57324.07;;;-140.43;100.00
30714;BME280;17465;47.934;33.430;2023-04-06T01:38:50;57343.14;;;-140.43;100.00
30714;BME280;17465;47.934;33.430;2023-04-06T01:41:20;57343.14;;;-140.43;100.00
30714;BME280;17465;47.934;33.430;2023-04-06T01:43:51;57361.14;;;-140.43;100.00
30714;BME280;17465;47.934;33.430;2023-04-06T01:46:22;57345.26;;;-140.43;100.00
30714;BME280;17465;47.934;33.430;2023-04-06T01:48:53;57359.03;;;-140.43;100.00
30714;BME280;17465;47.934;33.430;2023-04-06T01:51:24;57382.32;;;-140.43;100.00
30714;BME280;17465;47.934;33.430;2023-04-06T01:53:54;57367.50;;;-140.43;100.00
30714;BME280;17465;47.934;33.430;2023-04-06T01:56:25;57354.79;;;-140.43;100.00
30714;BME280;17465;47.934;33.430;2023-04-06T01:58:56;57339.96;;;-140.43;100.00
30714;BME280;17465;47.934;33.430;2023-04-06T02:01:26;57378.09;;;-140.43;100.00
30714;BME280;17465;47.934;33.430;2023-04-06T02:03:57;57339.96;;;-140.43;100.00
30714;BME280;17465;47.934;33.430;2023-04-06T02:06:28;57339.96;;;-140.43;100.00
30714;BME280;17465;47.934;33.430;2023-04-06T02:08:58;57359.03;;;-140.43;100.00
30714;BME280;17465;47.934;33.430;2023-04-06T02:11:31;57364.32;;;-140.43;100.00
30714;BME280;17465;47.934;33.430;2023-04-06T02:14:02;57367.50;;;-140.43;100.00
30714;BME280;17465;47.934;33.430;2023-04-06T02:16:32;57362.20;;;-140.43;100.00
30714;BME280;17465;47.934;33.430;2023-04-06T02:19:03;57362.20;;;-140.43;100.00
30714;BME280;17465;47.934;33.430;2023-04-06T02:21:35;57350.55;;;-140.43;100.00
30714;BME280;17465;47.934;33.430;2023-04-06T02:24:07;57350.55;;;-140.43;100.00
30714;BME280;17465;47.934;33.430;2023-04-06T02:26:38;57383.38;;;-140.43;100.00
30714;BME280;17465;47.934;33.430;2023-04-06T02:29:09;57366.44;;;-140.43;100.00
30714;BME280;17465;47.934;33.430;2023-04-06T02:31:40;57395.03;;;-140.43;100.00
30714;BME280;17465;47.934;33.430;2023-04-06T02:34:11;57352.67;;;-140.43;100.00
30714;BME280;17465;47.934;33.430;2023-04-06T02:36:44;57382.32;;;-140.43;100.00
30714;BME280;17465;47.934;33.430;2023-04-06T02:39:15;57390.80;;;-140.43;100.00
30714;BME280;17465;47.934;33.430;2023-04-06T02:41:45;57346.32;;;-140.43;100.00
30714;BME280;17465;47.934;33.430;2023-04-06T02:44:16;57384.44;;;-140.43;100.00
30714;BME280;17465;47.934;33.430;2023-04-06T02:46:47;57384.44;;;-140.43;100.00
30714;BME280;17465;47.934;33.430;2023-04-06T02:49:18;57375.97;;;-140.43;100.00
30714;BME280;17465;47.934;33.430;2023-04-06T02:51:49;57350.55;;;-140.43;100.00
30714;BME280;17465;47.934;33.430;2023-04-06T02:54:19;57368.55;;;-140.43;100.00
30714;BME280;17465;47.934;33.430;2023-04-06T02:56:50;57374.91;;;-140.43;100.00
30714;BME280;17465;47.934;33.430;2023-04-06T02:59:20;57366.44;;;-140.43;100.00
30714;BME280;17465;47.934;33.430;2023-04-06T03:01:52;57395.03;;;-140.43;100.00
30714;BME280;17465;47.934;33.430;2023-04-06T03:04:22;57378.09;;;-140.43;100.00
30714;BME280;17465;47.934;33.430;2023-04-06T03:06:54;57343.14;;;-140.43;100.00
30714;BME280;17465;47.934;33.430;2023-04-06T03:09:24;57346.32;;;-140.43;100.00
30714;BME280;17465;47.934;33.430;2023-04-06T03:11:55;57352.67;;;-140.43;100.00
30714;BME280;17465;47.934;33.430;2023-04-06T03:14:27;57372.79;;;-140.43;100.00
30714;BME280;17465;47.934;33.430;2023-04-06T03:17:00;57360.08;;;-140.43;100.00
30714;BME280;17465;47.934;33.430;2023-04-06T03:19:31;57350.55;;;-140.43;100.00
30714;BME280;17465;47.934;33.430;2023-04-06T03:22:01;57369.62;;;-140.43;100.00
30714;BME280;17465;47.934;33.430;2023-04-06T03:24:35;57369.62;;;-140.43;100.00
30714;BME280;17465;47.934;33.430;2023-04-06T03:27:09;57370.68;;;-140.43;100.00
30714;BME280;17465;47.934;33.430;2023-04-06T03:29:40;57400.33;;;-140.43;100.00
30714;BME280;17465;47.934;33.430;2023-04-06T03:32:10;57400.33;;;-140.43;100.00
30714;BME280;17465;47.934;33.430;2023-04-06T03:34:42;57371.73;;;-140.43;100.00
30714;BME280;17465;47.934;33.430;2023-04-06T03:37:13;57366.44;;;-140.43;100.00
30714;BME280;17465;47.934;33.430;2023-04-06T03:39:44;57360.08;;;-140.43;100.00
30714;BME280;17465;47.934;33.430;2023-04-06T03:42:14;57378.09;;;-140.43;100.00
30714;BME280;17465;47.934;33.430;2023-04-06T03:44:45;57378.09;;;-140.43;100.00
30714;BME280;17465;47.934;33.430;2023-04-06T03:47:16;57364.32;;;-140.43;100.00
30714;BME280;17465;47.934;33.430;2023-04-06T03:49:47;57369.62;;;-140.43;100.00
30714;BME280;17465;47.934;33.430;2023-04-06T03:52:17;57362.20;;;-140.43;100.00
30714;BME280;17465;47.934;33.430;2023-04-06T03:54:48;57371.73;;;-140.43;100.00
30714;BME280;17465;47.934;33.430;2023-04-06T03:57:18;57360.08;;;-140.43;100.00
30714;BME280;17465;47.934;33.430;2023-04-06T03:59:49;57355.85;;;-140.43;100.00
30714;BME280;17465;47.934;33.430;2023-04-06T04:02:20;57369.62;;;-140.43;100.00
30714;BME280;17465;47.934;33.430;2023-04-06T04:04:52;57347.38;;;-140.43;100.00
30714;BME280;17465;47.934;33.430;2023-04-06T04:07:23;57335.73;;;-140.43;100.00
30714;BME280;17465;47.934;33.430;2023-04-06T04:09:53;57335.73;;;-140.43;100.00
30714;BME280;17465;47.934;33.430;2023-04-06T04:12:24;57345.26;;;-140.43;100.00
30714;BME280;17465;47.934;33.430;2023-04-06T04:14:55;57360.08;;;-140.43;100.00
30714;BME280;17465;47.934;33.430;2023-04-06T04:17:25;57356.91;;;-140.43;100.00
30714;BME280;17465;47.934;33.430;2023-04-06T04:19:56;57363.26;;;-140.43;100.00
30714;BME280;17465;47.934;33.430;2023-04-06T04:22:27;57366.44;;;-140.43;100.00
30714;BME280;17465;47.934;33.430;2023-04-06T04:25:00;57378.09;;;-140.43;100.00
30714;BME280;17465;47.934;33.430;2023-04-06T04:27:32;57335.73;;;-140.43;100.00
30714;BME280;17465;47.934;33.430;2023-04-06T04:30:04;57335.73;;;-140.43;100.00
30714;BME280;17465;47.934;33.430;2023-04-06T04:32:35;57391.86;;;-140.43;100.00
30714;BME280;17465;47.934;33.430;2023-04-06T04:35:08;57332.55;;;-140.43;100.00
30714;BME280;17465;47.934;33.430;2023-04-06T04:37:41;57348.43;;;-140.43;100.00
30714;BME280;17465;47.934;33.430;2023-04-06T04:40:12;57337.84;;;-140.43;100.00
30714;BME280;17465;47.934;33.430;2023-04-06T04:42:42;57364.32;;;-140.43;100.00
30714;BME280;17465;47.934;33.430;2023-04-06T04:45:16;57329.37;;;-140.43;100.00
30714;BME280;17465;47.934;33.430;2023-04-06T04:47:46;57369.62;;;-140.43;100.00
30714;BME280;17465;47.934;33.430;2023-04-06T04:50:18;57364.32;;;-140.43;100.00
30714;BME280;17465;47.934;33.430;2023-04-06T04:52:49;57364.32;;;-140.43;100.00
30714;BME280;17465;47.934;33.430;2023-04-06T04:55:20;57366.44;;;-140.43;100.00
30714;BME280;17465;47.934;33.430;2023-04-06T04:57:51;57335.73;;;-140.43;100.00
30714;BME280;17465;47.934;33.430;2023-04-06T05:00:24;57360.08;;;-140.43;100.00
30714;BME280;17465;47.934;33.430;2023-04-06T05:02:54;57359.03;;;-140.43;100.00
30714;BME280;17465;47.934;33.430;2023-04-06T05:05:31;57359.03;;;-140.43;100.00
30714;BME280;17465;47.934;33.430;2023-04-06T05:08:04;57360.08;;;-140.43;100.00
30714;BME280;17465;47.934;33.430;2023-04-06T05:10:36;57371.73;;;-140.43;100.00
30714;BME280;17465;47.934;33.430;2023-04-06T05:13:08;57351.61;;;-140.43;100.00
30714;BME280;17465;47.934;33.430;2023-04-06T05:15:39;57360.08;;;-140.43;100.00
30714;BME280;17465;47.934;33.430;2023-04-06T05:18:10;57346.32;;;-140.43;100.00
30714;BME280;17465;47.934;33.430;2023-04-06T05:20:42;57339.96;;;-140.43;100.00
30714;BME280;17465;47.934;33.430;2023-04-06T05:23:12;57350.55;;;-140.43;100.00
30714;BME280;17465;47.934;33.430;2023-04-06T05:25:43;57365.38;;;-140.43;100.00
30714;BME280;17465;47.934;33.430;2023-04-06T05:28:17;57348.43;;;-140.43;100.00
30714;BME280;17465;47.934;33.430;2023-04-06T05:30:49;57348.43;;;-140.43;100.00
30714;BME280;17465;47.934;33.430;2023-04-06T05:33:23;57341.02;;;-140.43;100.00
30714;BME280;17465;47.934;33.430;2023-04-06T05:35:58;57354.79;;;-140.43;100.00
30714;BME280;17465;47.934;33.430;2023-04-06T05:38:28;57346.32;;;-140.43;100.00
30714;BME280;17465;47.934;33.430;2023-04-06T05:41:08;57351.61;;;-140.43;100.00
30714;BME280;17465;47.934;33.430;2023-04-06T05:43:35;57368.55;;;-140.43;100.00
30714;BME280;17465;47.934;33.430;2023-04-06T05:46:08;57345.26;;;-140.43;100.00
30714;BME280;17465;47.934;33.430;2023-04-06T05:48:39;57374.91;;;-140.43;100.00
30714;BME280;17465;47.934;33.430;2023-04-06T05:51:09;57335.73;;;-140.43;100.00
30714;BME280;17465;47.934;33.430;2023-04-06T05:53:41;57332.55;;;-140.43;100.00
30714;BME280;17465;47.934;33.430;2023-04-06T05:56:13;57377.03;;;-140.43;100.00
30714;BME280;17465;47.934;33.430;2023-04-06T05:58:48;57338.90;;;-140.43;100.00
30714;BME280;17465;47.934;33.430;2023-04-06T06:01:17;57351.61;;;-140.43;100.00
30714;BME280;17465;47.934;33.430;2023-04-06T06:03:49;57362.20;;;-140.43;100.00
30714;BME280;17465;47.934;33.430;2023-04-06T06:06:19;57348.43;;;-140.43;100.00
30714;BME280;17465;47.934;33.430;2023-04-06T06:08:50;57327.25;;;-140.43;100.00
30714;BME280;17465;47.934;33.430;2023-04-06T06:11:23;57369.62;;;-140.43;100.00
30714;BME280;17465;47.934;33.430;2023-04-06T06:13:58;57350.55;;;-140.43;100.00
30714;BME280;17465;47.934;33.430;2023-04-06T06:16:44;57331.49;;;-140.43;100.00
30714;BME280;17465;47.934;33.430;2023-04-06T06:19:15;57331.49;;;-140.43;100.00
30714;BME280;17465;47.934;33.430;2023-04-06T06:21:46;57334.67;;;-140.43;100.00
30714;BME280;17465;47.934;33.430;2023-04-06T06:24:19;57383.38;;;-140.43;100.00
30714;BME280;17465;47.934;33.430;2023-04-06T06:26:52;57345.26;;;-140.43;100.00
30714;BME280;17465;47.934;33.430;2023-04-06T06:29:23;57364.32;;;-140.43;100.00
30714;BME280;17465;47.934;33.430;2023-04-06T06:31:55;57354.79;;;-140.43;100.00
30714;BME280;17465;47.934;33.430;2023-04-06T06:34:25;57354.79;;;-140.43;100.00
30714;BME280;17465;47.934;33.430;2023-04-06T06:36:56;57368.55;;;-140.43;100.00
30714;BME280;17465;47.934;33.430;2023-04-06T06:39:27;57333.61;;;-140.43;100.00
30714;BME280;17465;47.934;33.430;2023-04-06T06:41:58;57375.97;;;-140.43;100.00
30714;BME280;17465;47.934;33.430;2023-04-06T06:44:29;57342.08;;;-140.43;100.00
30714;BME280;17465;47.934;33.430;2023-04-06T06:47:02;57352.67;;;-140.43;100.00
30714;BME280;17465;47.934;33.430;2023-04-06T06:49:33;57331.49;;;-140.43;100.00
30714;BME280;17465;47.934;33.430;2023-04-06T06:52:04;57364.32;;;-140.43;100.00
30714;BME280;17465;47.934;33.430;2023-04-06T06:54:35;57345.26;;;-140.43;100.00
30714;BME280;17465;47.934;33.430;2023-04-06T06:57:06;57371.73;;;-140.43;100.00
30714;BME280;17465;47.934;33.430;2023-04-06T06:59:38;57337.84;;;-140.43;100.00
30714;BME280;17465;47.934;33.430;2023-04-06T07:02:11;57377.03;;;-140.43;100.00
30714;BME280;17465;47.934;33.430;2023-04-06T07:04:42;57363.26;;;-140.43;100.00
30714;BME280;17465;47.934;33.430;2023-04-06T07:07:14;57348.43;;;-140.43;100.00
30714;BME280;17465;47.934;33.430;2023-04-06T07:09:46;57338.90;;;-140.43;100.00
30714;BME280;17465;47.934;33.430;2023-04-06T07:12:19;57368.55;;;-140.43;100.00
30714;BME280;17465;47.934;33.430;2023-04-06T07:14:50;57356.91;;;-140.43;100.00
30714;BME280;17465;47.934;33.430;2023-04-06T07:17:22;57347.38;;;-140.43;100.00
30714;BME280;17465;47.934;33.430;2023-04-06T07:19:56;57339.96;;;-140.43;100.00
30714;BME280;17465;47.934;33.430;2023-04-06T07:22:26;57338.90;;;-140.43;100.00
30714;BME280;17465;47.934;33.430;2023-04-06T07:25:01;57374.91;;;-140.43;100.00
30714;BME280;17465;47.934;33.430;2023-04-06T07:27:36;57362.20;;;-140.43;100.00
30714;BME280;17465;47.934;33.430;2023-04-06T07:30:11;57361.14;;;-140.43;100.00
30714;BME280;17465;47.934;33.430;2023-04-06T07:32:42;57350.55;;;-140.43;100.00
30714;BME280;17465;47.934;33.430;2023-04-06T07:35:17;57381.27;;;-140.43;100.00
30714;BME280;17465;47.934;33.430;2023-04-06T07:37:59;57350.55;;;-140.43;100.00
30714;BME280;17465;47.934;33.430;2023-04-06T07:40:30;57350.55;;;-140.43;100.00
30714;BME280;17465;47.934;33.430;2023-04-06T07:43:01;57352.67;;;-140.43;100.00
30714;BME280;17465;47.934;33.430;2023-04-06T07:45:35;57362.20;;;-140.43;100.00
30714;BME280;17465;47.934;33.430;2023-04-06T07:48:05;57371.73;;;-140.43;100.00
30714;BME280;17465;47.934;33.430;2023-04-06T07:50:39;57356.91;;;-140.43;100.00
30714;BME280;17465;47.934;33.430;2023-04-06T07:53:13;57356.91;;;-140.43;100.00
30714;BME280;17465;47.934;33.430;2023-04-06T07:55:49;57350.55;;;-140.43;100.00
30714;BME280;17465;47.934;33.430;2023-04-06T07:58:24;57356.91;;;-140.43;100.00
30714;BME280;17465;47.934;33.430;2023-04-06T08:00:55;57346.32;;;-140.43;100.00
30714;BME280;17465;47.934;33.430;2023-04-06T08:03:28;57349.49;;;-140.43;100.00
30714;BME280;17465;47.934;33.430;2023-04-06T08:06:00;57363.26;;;-140.43;100.00
30714;BME280;17465;47.934;33.430;2023-04-06T08:08:32;57353.73;;;-140.43;100.00
30714;BME280;17465;47.934;33.430;2023-04-06T08:11:02;57347.38;;;-140.43;100.00
30714;BME280;17465;47.934;33.430;2023-04-06T08:13:34;57332.55;;;-140.43;100.00
30714;BME280;17465;47.934;33.430;2023-04-06T08:16:08;57332.55;;;-140.43;100.00
30714;BME280;17465;47.934;33.430;2023-04-06T08:18:45;57330.43;;;-140.43;99.65
30714;BME280;17465;47.934;33.430;2023-04-06T08:21:22;57371.73;;;-140.43;99.65
30714;BME280;17465;47.934;33.430;2023-04-06T08:23:49;57342.08;;;-140.43;99.96
30714;BME280;17465;47.934;33.430;2023-04-06T08:26:19;57351.61;;;-140.43;100.00
30714;BME280;17465;47.934;33.430;2023-04-06T08:28:53;57310.31;;;-140.43;100.00
30714;BME280;17465;47.934;33.430;2023-04-06T08:31:28;57343.14;;;-140.43;100.00
30714;BME280;17465;47.934;33.430;2023-04-06T08:33:57;57363.26;;;-140.43;100.00
30714;BME280;17465;47.934;33.430;2023-04-06T08:36:28;57363.26;;;-140.43;100.00
30714;BME280;17465;47.934;33.430;2023-04-06T08:39:00;57350.55;;;-140.43;100.00
30714;BME280;17465;47.934;33.430;2023-04-06T08:41:30;57349.49;;;-140.43;100.00
30714;BME280;17465;47.934;33.430;2023-04-06T08:44:03;57357.96;;;-140.43;100.00
30714;BME280;17465;47.934;33.430;2023-04-06T08:46:35;57351.61;;;-140.43;100.00
30714;BME280;17465;47.934;33.430;2023-04-06T08:49:08;57323.02;;;-140.43;100.00
30714;BME280;17465;47.934;33.430;2023-04-06T08:51:44;57323.02;;;-140.43;100.00
30714;BME280;17465;47.934;33.430;2023-04-06T08:54:14;57374.91;;;-140.43;100.00
30714;BME280;17465;47.934;33.430;2023-04-06T08:56:49;57331.49;;;-140.43;100.00
30714;BME280;17465;47.934;33.430;2023-04-06T08:59:21;57354.79;;;-140.43;100.00
30714;BME280;17465;47.934;33.430;2023-04-06T09:01:55;57379.15;;;-140.43;100.00
30714;BME280;17465;47.934;33.430;2023-04-06T09:04:34;57363.26;;;-140.43;100.00
30714;BME280;17465;47.934;33.430;2023-04-06T09:07:15;57364.32;;;-140.43;99.78
30714;BME280;17465;47.934;33.430;2023-04-06T09:09:46;57372.79;;;-140.43;100.00
30714;BME280;17465;47.934;33.430;2023-04-06T09:12:30;57320.90;;;-140.43;99.42
30714;BME280;17465;47.934;33.430;2023-04-06T09:15:02;57343.14;;;-140.43;98.78
30714;BME280;17465;47.934;33.430;2023-04-06T09:17:33;57388.68;;;-140.43;98.57
30714;BME280;17465;47.934;33.430;2023-04-06T09:23:06;57365.38;;;-140.43;97.67
30714;BME280;17465;47.934;33.430;2023-04-06T09:25:37;57374.91;;;-140.43;98.41
30714;BME280;17465;47.934;33.430;2023-04-06T09:28:08;57369.62;;;-140.43;98.60
30714;BME280;17465;47.934;33.430;2023-04-06T09:30:50;57361.14;;;-140.43;98.38
30714;BME280;17465;47.934;33.430;2023-04-06T09:33:12;57361.14;;;-140.43;98.38
30714;BME280;17465;47.934;33.430;2023-04-06T09:35:49;57359.03;;;-140.43;99.05
30714;BME280;17465;47.934;33.430;2023-04-06T09:38:24;57366.44;;;-140.43;98.66
30714;BME280;17465;47.934;33.430;2023-04-06T09:40:55;57374.91;;;-140.43;97.75
30714;BME280;17465;47.934;33.430;2023-04-06T09:43:46;57369.62;;;-140.43;97.27
30714;BME280;17465;47.934;33.430;2023-04-06T09:46:18;57311.37;;;-140.43;96.28
30714;BME280;17465;47.934;33.430;2023-04-06T09:48:50;57356.91;;;-140.43;94.23
30714;BME280;17465;47.934;33.430;2023-04-06T09:51:22;57329.37;;;-140.43;92.19
30714;BME280;17465;47.934;33.430;2023-04-06T09:53:57;57366.44;;;-140.43;92.47
30714;BME280;17465;47.934;33.430;2023-04-06T09:56:39;57360.08;;;-140.43;92.80
30714;BME280;17465;47.934;33.430;2023-04-06T09:59:08;57361.14;;;-140.43;92.30
30714;BME280;17465;47.934;33.430;2023-04-06T10:01:39;57361.14;;;-140.43;92.05
30714;BME280;17465;47.934;33.430;2023-04-06T10:07:06;57357.96;;;-140.43;92.26
30714;BME280;17465;47.934;33.430;2023-04-06T10:09:44;57367.50;;;-140.43;91.61
30714;BME280;17465;47.934;33.430;2023-04-06T10:12:13;57367.50;;;-140.43;91.61
30714;BME280;17465;47.934;33.430;2023-04-06T10:14:44;57359.03;;;-140.43;92.50
30714;BME280;17465;47.934;33.430;2023-04-06T10:17:15;57359.03;;;-140.43;92.50
30714;BME280;17465;47.934;33.430;2023-04-06T10:20:01;57372.79;;;-140.43;92.83
30714;BME280;17465;47.934;33.430;2023-04-06T10:22:45;57352.67;;;-140.43;92.83
30714;BME280;17465;47.934;33.430;2023-04-06T10:25:29;57392.91;;;-140.43;92.53
30714;BME280;17465;47.934;33.430;2023-04-06T10:28:08;57353.73;;;-140.43;91.84
30714;BME280;17465;47.934;33.430;2023-04-06T10:30:43;57366.44;;;-140.43;92.89
30714;BME280;17465;47.934;33.430;2023-04-06T10:33:20;57366.44;;;-140.43;93.23
30714;BME280;17465;47.934;33.430;2023-04-06T10:35:49;57366.44;;;-140.43;93.31
30714;BME280;17465;47.934;33.430;2023-04-06T10:38:20;57357.96;;;-140.43;93.66
30714;BME280;17465;47.934;33.430;2023-04-06T10:40:55;57369.62;;;-140.43;94.62
30714;BME280;17465;47.934;33.430;2023-04-06T10:43:27;57390.80;;;-140.43;94.82
30714;BME280;17465;47.934;33.430;2023-04-06T10:46:01;57357.96;;;-140.43;94.43
30714;BME280;17465;47.934;33.430;2023-04-06T10:48:44;57357.96;;;-140.43;94.43
30714;BME280;17465;47.934;33.430;2023-04-06T10:51:17;57355.85;;;-140.43;95.20
30714;BME280;17465;47.934;33.430;2023-04-06T10:53:47;57375.97;;;-140.43;94.34
30714;BME280;17465;47.934;33.430;2023-04-06T10:59:10;57386.56;;;-140.43;93.69
30714;BME280;17465;47.934;33.430;2023-04-06T11:01:44;57348.43;;;-140.43;93.10
30714;BME280;17465;47.934;33.430;2023-04-06T11:04:19;57350.55;;;-140.43;93.79
30714;BME280;17465;47.934;33.430;2023-04-06T11:06:54;57350.55;;;-140.43;93.79
30714;BME280;17465;47.934;33.430;2023-04-06T11:09:26;57356.91;;;-140.43;94.16
30714;BME280;17465;47.934;33.430;2023-04-06T11:11:57;57356.91;;;-140.43;93.66
30714;BME280;17465;47.934;33.430;2023-04-06T11:14:28;57360.08;;;-140.43;91.78
30714;BME280;17465;47.934;33.430;2023-04-06T11:17:03;57361.14;;;-140.43;90.97
30714;BME280;17465;47.934;33.430;2023-04-06T11:19:36;57356.91;;;-140.43;90.97
30714;BME280;17465;47.934;33.430;2023-04-06T11:22:17;57364.32;;;-140.43;91.54
30714;BME280;17465;47.934;33.430;2023-04-06T11:24:52;57377.03;;;-140.43;92.01
30714;BME280;17465;47.934;33.430;2023-04-06T11:27:24;57361.14;;;-140.43;92.31
30714;BME280;17465;47.934;33.430;2023-04-06T11:29:55;57362.20;;;-140.43;91.36
30714;BME280;17465;47.934;33.430;2023-04-06T11:32:27;57364.32;;;-140.43;89.69
30714;BME280;17465;47.934;33.430;2023-04-06T11:34:58;57365.38;;;-140.43;88.81
30714;BME280;17465;47.934;33.430;2023-04-06T11:37:30;57370.68;;;-140.43;88.51
30714;BME280;17465;47.934;33.430;2023-04-06T11:40:01;57382.32;;;-140.43;89.02
30714;BME280;17465;47.934;33.430;2023-04-06T11:42:44;57367.50;;;-140.43;90.23
30714;BME280;17465;47.934;33.430;2023-04-06T11:45:16;57367.50;;;-140.43;91.12
30714;BME280;17465;47.934;33.430;2023-04-06T11:47:59;57352.67;;;-140.43;91.73
30714;BME280;17465;47.934;33.430;2023-04-06T11:50:21;57352.67;;;-140.43;91.73
30714;BME280;17465;47.934;33.430;2023-04-06T11:53:00;57363.26;;;-140.43;90.73
30714;BME280;17465;47.934;33.430;2023-04-06T11:55:42;57363.26;;;-140.43;89.92
30714;BME280;17465;47.934;33.430;2023-04-06T11:58:05;57363.26;;;-140.43;89.92
30714;BME280;17465;47.934;33.430;2023-04-06T12:00:43;57354.79;;;-140.43;88.21
30714;BME280;17465;47.934;33.430;2023-04-06T12:03:09;57344.20;;;-140.43;87.95
30714;BME280;17465;47.934;33.430;2023-04-06T12:05:40;57363.26;;;-140.43;88.40
30714;BME280;17465;47.934;33.430;2023-04-06T12:08:11;57348.43;;;-140.43;88.41
30714;BME280;17465;47.934;33.430;2023-04-06T12:10:41;57348.43;;;-140.43;88.41
30714;BME280;17465;47.934;33.430;2023-04-06T12:13:12;57337.84;;;-140.43;88.33
30714;BME280;17465;47.934;33.430;2023-04-06T12:15:43;57362.20;;;-140.43;88.63
30714;BME280;17465;47.934;33.430;2023-04-06T12:18:13;57361.14;;;-140.43;88.79
30714;BME280;17465;47.934;33.430;2023-04-06T12:20:45;57346.32;;;-140.43;88.41
30714;BME280;17465;47.934;33.430;2023-04-06T12:23:15;57343.14;;;-140.43;88.21
30714;BME280;17465;47.934;33.430;2023-04-06T12:25:46;57353.73;;;-140.43;87.76
30714;BME280;17465;47.934;33.430;2023-04-06T12:28:18;57362.20;;;-140.43;88.60
30714;BME280;17465;47.934;33.430;2023-04-06T12:30:49;57362.20;;;-140.43;88.60
30714;BME280;17465;47.934;33.430;2023-04-06T12:33:20;57392.91;;;-140.43;87.32
30714;BME280;17465;47.934;33.430;2023-04-06T12:35:51;57371.73;;;-140.43;86.57
30714;BME280;17465;47.934;33.430;2023-04-06T12:38:22;57371.73;;;-140.43;86.57
30714;BME280;17465;47.934;33.430;2023-04-06T12:40:55;57356.91;;;-140.43;86.53
30714;BME280;17465;47.934;33.430;2023-04-06T12:43:26;57359.03;;;-140.43;87.21
30714;BME280;17465;47.934;33.430;2023-04-06T12:46:06;57371.73;;;-140.43;86.80
30714;BME280;17465;47.934;33.430;2023-04-06T12:48:38;57366.44;;;-140.43;85.65
30714;BME280;17465;47.934;33.430;2023-04-06T12:51:09;57366.44;;;-140.43;85.65
30714;BME280;17465;47.934;33.430;2023-04-06T12:53:50;57381.27;;;-140.43;82.97
30714;BME280;17465;47.934;33.430;2023-04-06T12:56:22;57324.07;;;-140.43;83.40
30714;BME280;17465;47.934;33.430;2023-04-06T12:58:54;57357.96;;;-140.43;84.72